sensor_id;sensor_type;location;lat;lon;timestamp;P1;durP1;ratioP1;P2;durP2;ratioP2
76725;SDS011;65651;53.154;17.916;2023-08-17T00:02:01;4.40;;;1.90;;
76725;SDS011;65651;53.154;17.916;2023-08-17T00:04:29;4.80;;;2.10;;
76725;SDS011;65651;53.154;17.916;2023-08-17T00:06:56;3.50;;;2.00;;
76725;SDS011;65651;53.154;17.916;2023-08-17T00:09:23;3.70;;;2.20;;
76725;SDS011;65651;53.154;17.916;2023-08-17T00:11:51;2.90;;;1.90;;
76725;SDS011;65651;53.154;17.916;2023-08-17T00:14:18;2.90;;;1.40;;
76725;SDS011;65651;53.154;17.916;2023-08-17T00:16:45;4.80;;;2.10;;
76725;SDS011;65651;53.154;17.916;2023-08-17T00:19:13;6.60;;;1.90;;
76725;SDS011;65651;53.154;17.916;2023-08-17T00:21:40;2.80;;;1.70;;
76725;SDS011;65651;53.154;17.916;2023-08-17T00:24:08;4.60;;;1.80;;
76725;SDS011;65651;53.154;17.916;2023-08-17T00:26:35;4.00;;;2.20;;
76725;SDS011;65651;53.154;17.916;2023-08-17T00:29:02;7.70;;;2.40;;
76725;SDS011;65651;53.154;17.916;2023-08-17T00:31:30;6.70;;;1.90;;
76725;SDS011;65651;53.154;17.916;2023-08-17T00:33:57;3.70;;;1.90;;
76725;SDS011;65651;53.154;17.916;2023-08-17T00:36:24;2.80;;;1.80;;
76725;SDS011;65651;53.154;17.916;2023-08-17T00:38:51;3.30;;;1.70;;
76725;SDS011;65651;53.154;17.916;2023-08-17T00:41:18;4.80;;;1.70;;
76725;SDS011;65651;53.154;17.916;2023-08-17T00:43:45;3.10;;;1.90;;
76725;SDS011;65651;53.154;17.916;2023-08-17T00:46:13;4.90;;;2.00;;
76725;SDS011;65651;53.154;17.916;2023-08-17T00:48:41;4.00;;;1.80;;
76725;SDS011;65651;53.154;17.916;2023-08-17T00:51:09;6.50;;;1.80;;
76725;SDS011;65651;53.154;17.916;2023-08-17T00:53:37;2.80;;;1.80;;
76725;SDS011;65651;53.154;17.916;2023-08-17T00:56:04;3.70;;;1.90;;
76725;SDS011;65651;53.154;17.916;2023-08-17T00:58:32;3.70;;;1.80;;
76725;SDS011;65651;53.154;17.916;2023-08-17T01:01:00;5.60;;;1.90;;
76725;SDS011;65651;53.154;17.916;2023-08-17T01:03:28;4.10;;;1.90;;
76725;SDS011;65651;53.154;17.916;2023-08-17T01:05:57;7.00;;;1.90;;
76725;SDS011;65651;53.154;17.916;2023-08-17T01:08:24;4.50;;;2.30;;
76725;SDS011;65651;53.154;17.916;2023-08-17T01:16:57;3.30;;;1.80;;
76725;SDS011;65651;53.154;17.916;2023-08-17T01:19:33;4.40;;;1.50;;
76725;SDS011;65651;53.154;17.916;2023-08-17T01:22:03;3.90;;;1.80;;
76725;SDS011;65651;53.154;17.916;2023-08-17T01:24:32;4.10;;;1.60;;
76725;SDS011;65651;53.154;17.916;2023-08-17T01:26:59;5.50;;;2.00;;
76725;SDS011;65651;53.154;17.916;2023-08-17T01:29:26;4.50;;;1.70;;
76725;SDS011;65651;53.154;17.916;2023-08-17T01:31:59;3.90;;;1.80;;
76725;SDS011;65651;53.154;17.916;2023-08-17T01:34:35;2.90;;;1.50;;
76725;SDS011;65651;53.154;17.916;2023-08-17T01:37:07;3.00;;;1.60;;
76725;SDS011;65651;53.154;17.916;2023-08-17T01:39:37;3.70;;;1.60;;
76725;SDS011;65651;53.154;17.916;2023-08-17T01:42:09;3.60;;;1.80;;
76725;SDS011;65651;53.154;17.916;2023-08-17T01:44:39;3.50;;;1.70;;
76725;SDS011;65651;53.154;17.916;2023-08-17T01:47:07;5.70;;;1.80;;
76725;SDS011;65651;53.154;17.916;2023-08-17T01:49:34;4.70;;;1.60;;
76725;SDS011;65651;53.154;17.916;2023-08-17T01:52:02;4.10;;;1.70;;
76725;SDS011;65651;53.154;17.916;2023-08-17T01:54:32;3.70;;;1.50;;
76725;SDS011;65651;53.154;17.916;2023-08-17T01:56:59;3.50;;;1.50;;
76725;SDS011;65651;53.154;17.916;2023-08-17T01:59:27;4.70;;;2.00;;
76725;SDS011;65651;53.154;17.916;2023-08-17T02:01:55;4.60;;;1.50;;
76725;SDS011;65651;53.154;17.916;2023-08-17T02:04:22;2.30;;;1.20;;
76725;SDS011;65651;53.154;17.916;2023-08-17T02:06:49;5.80;;;1.80;;
76725;SDS011;65651;53.154;17.916;2023-08-17T02:09:16;2.70;;;1.60;;
76725;SDS011;65651;53.154;17.916;2023-08-17T02:11:43;3.70;;;1.80;;
76725;SDS011;65651;53.154;17.916;2023-08-17T02:14:11;4.20;;;1.90;;
76725;SDS011;65651;53.154;17.916;2023-08-17T02:16:38;4.30;;;1.50;;
76725;SDS011;65651;53.154;17.916;2023-08-17T02:19:05;2.50;;;1.20;;
76725;SDS011;65651;53.154;17.916;2023-08-17T02:21:32;6.40;;;1.60;;
76725;SDS011;65651;53.154;17.916;2023-08-17T02:23:59;3.00;;;1.30;;
76725;SDS011;65651;53.154;17.916;2023-08-17T02:26:27;4.10;;;1.10;;
76725;SDS011;65651;53.154;17.916;2023-08-17T02:28:54;4.30;;;1.20;;
76725;SDS011;65651;53.154;17.916;2023-08-17T02:31:21;2.70;;;1.00;;
76725;SDS011;65651;53.154;17.916;2023-08-17T02:33:48;5.50;;;1.20;;
76725;SDS011;65651;53.154;17.916;2023-08-17T02:36:16;2.50;;;1.10;;
76725;SDS011;65651;53.154;17.916;2023-08-17T02:38:43;3.10;;;1.10;;
76725;SDS011;65651;53.154;17.916;2023-08-17T02:41:10;4.80;;;1.20;;
76725;SDS011;65651;53.154;17.916;2023-08-17T02:43:38;2.30;;;1.00;;
76725;SDS011;65651;53.154;17.916;2023-08-17T02:46:05;2.60;;;1.20;;
76725;SDS011;65651;53.154;17.916;2023-08-17T02:48:34;2.50;;;1.00;;
76725;SDS011;65651;53.154;17.916;2023-08-17T02:51:02;3.30;;;1.20;;
76725;SDS011;65651;53.154;17.916;2023-08-17T02:53:29;2.70;;;0.80;;
76725;SDS011;65651;53.154;17.916;2023-08-17T02:55:57;2.90;;;1.00;;
76725;SDS011;65651;53.154;17.916;2023-08-17T02:58:24;3.50;;;0.90;;
76725;SDS011;65651;53.154;17.916;2023-08-17T03:00:51;1.80;;;1.00;;
76725;SDS011;65651;53.154;17.916;2023-08-17T03:03:19;3.40;;;1.00;;
76725;SDS011;65651;53.154;17.916;2023-08-17T03:05:46;2.60;;;1.10;;
76725;SDS011;65651;53.154;17.916;2023-08-17T03:08:13;6.70;;;0.90;;
76725;SDS011;65651;53.154;17.916;2023-08-17T03:10:40;3.30;;;1.20;;
76725;SDS011;65651;53.154;17.916;2023-08-17T03:13:08;3.40;;;0.90;;
76725;SDS011;65651;53.154;17.916;2023-08-17T03:15:36;4.00;;;1.10;;
76725;SDS011;65651;53.154;17.916;2023-08-17T03:18:06;2.60;;;0.80;;
76725;SDS011;65651;53.154;17.916;2023-08-17T03:20:34;5.30;;;1.00;;
76725;SDS011;65651;53.154;17.916;2023-08-17T03:23:02;2.70;;;1.50;;
76725;SDS011;65651;53.154;17.916;2023-08-17T03:25:33;3.70;;;1.00;;
76725;SDS011;65651;53.154;17.916;2023-08-17T03:28:01;2.70;;;1.10;;
76725;SDS011;65651;53.154;17.916;2023-08-17T03:30:28;3.40;;;1.50;;
76725;SDS011;65651;53.154;17.916;2023-08-17T03:32:56;4.30;;;1.10;;
76725;SDS011;65651;53.154;17.916;2023-08-17T03:35:23;2.30;;;1.30;;
76725;SDS011;65651;53.154;17.916;2023-08-17T03:37:53;2.50;;;1.00;;
76725;SDS011;65651;53.154;17.916;2023-08-17T03:40:21;3.20;;;0.80;;
76725;SDS011;65651;53.154;17.916;2023-08-17T03:42:48;4.60;;;1.10;;
76725;SDS011;65651;53.154;17.916;2023-08-17T03:45:15;2.70;;;1.00;;
76725;SDS011;65651;53.154;17.916;2023-08-17T03:47:45;5.70;;;0.90;;
76725;SDS011;65651;53.154;17.916;2023-08-17T03:50:12;4.90;;;1.00;;
76725;SDS011;65651;53.154;17.916;2023-08-17T03:52:39;3.20;;;0.90;;
76725;SDS011;65651;53.154;17.916;2023-08-17T03:55:07;3.60;;;1.00;;
76725;SDS011;65651;53.154;17.916;2023-08-17T03:57:34;1.90;;;1.00;;
76725;SDS011;65651;53.154;17.916;2023-08-17T04:00:01;3.70;;;1.00;;
76725;SDS011;65651;53.154;17.916;2023-08-17T04:02:40;4.80;;;1.60;;
76725;SDS011;65651;53.154;17.916;2023-08-17T04:05:08;5.10;;;1.10;;
76725;SDS011;65651;53.154;17.916;2023-08-17T04:07:35;6.10;;;1.50;;
76725;SDS011;65651;53.154;17.916;2023-08-17T04:10:07;5.70;;;2.00;;
76725;SDS011;65651;53.154;17.916;2023-08-17T04:12:35;7.70;;;2.60;;
76725;SDS011;65651;53.154;17.916;2023-08-17T04:15:03;4.40;;;1.70;;
76725;SDS011;65651;53.154;17.916;2023-08-17T04:17:31;6.00;;;1.40;;
76725;SDS011;65651;53.154;17.916;2023-08-17T04:19:58;5.10;;;1.70;;
76725;SDS011;65651;53.154;17.916;2023-08-17T04:22:25;10.10;;;3.00;;
76725;SDS011;65651;53.154;17.916;2023-08-17T04:24:53;5.80;;;2.10;;
76725;SDS011;65651;53.154;17.916;2023-08-17T04:27:21;8.80;;;2.20;;
76725;SDS011;65651;53.154;17.916;2023-08-17T04:29:49;4.60;;;1.70;;
76725;SDS011;65651;53.154;17.916;2023-08-17T04:32:19;2.80;;;1.30;;
76725;SDS011;65651;53.154;17.916;2023-08-17T04:34:46;4.00;;;1.70;;
76725;SDS011;65651;53.154;17.916;2023-08-17T04:37:15;5.40;;;1.90;;
76725;SDS011;65651;53.154;17.916;2023-08-17T04:39:42;5.10;;;1.80;;
76725;SDS011;65651;53.154;17.916;2023-08-17T04:42:11;3.90;;;1.50;;
76725;SDS011;65651;53.154;17.916;2023-08-17T04:44:38;5.40;;;2.00;;
76725;SDS011;65651;53.154;17.916;2023-08-17T04:47:05;4.10;;;2.10;;
76725;SDS011;65651;53.154;17.916;2023-08-17T04:49:33;6.20;;;2.20;;
76725;SDS011;65651;53.154;17.916;2023-08-17T04:52:00;6.00;;;2.50;;
76725;SDS011;65651;53.154;17.916;2023-08-17T04:54:28;4.90;;;2.40;;
76725;SDS011;65651;53.154;17.916;2023-08-17T04:56:56;6.30;;;2.10;;
76725;SDS011;65651;53.154;17.916;2023-08-17T04:59:25;4.20;;;2.60;;
76725;SDS011;65651;53.154;17.916;2023-08-17T05:01:54;6.00;;;2.50;;
76725;SDS011;65651;53.154;17.916;2023-08-17T05:04:21;4.00;;;2.30;;
76725;SDS011;65651;53.154;17.916;2023-08-17T05:06:51;4.70;;;2.50;;
76725;SDS011;65651;53.154;17.916;2023-08-17T05:09:19;3.00;;;2.20;;
76725;SDS011;65651;53.154;17.916;2023-08-17T05:11:47;3.30;;;1.90;;
76725;SDS011;65651;53.154;17.916;2023-08-17T05:14:15;6.40;;;2.00;;
76725;SDS011;65651;53.154;17.916;2023-08-17T05:16:43;3.50;;;1.60;;
76725;SDS011;65651;53.154;17.916;2023-08-17T05:19:10;4.10;;;1.60;;
76725;SDS011;65651;53.154;17.916;2023-08-17T05:21:37;4.70;;;2.20;;
76725;SDS011;65651;53.154;17.916;2023-08-17T05:24:05;4.20;;;2.10;;
76725;SDS011;65651;53.154;17.916;2023-08-17T05:26:32;5.20;;;2.00;;
76725;SDS011;65651;53.154;17.916;2023-08-17T05:29:10;5.10;;;2.20;;
76725;SDS011;65651;53.154;17.916;2023-08-17T05:31:47;3.70;;;1.60;;
76725;SDS011;65651;53.154;17.916;2023-08-17T05:34:15;3.40;;;1.80;;
76725;SDS011;65651;53.154;17.916;2023-08-17T05:36:42;3.20;;;2.20;;
76725;SDS011;65651;53.154;17.916;2023-08-17T05:39:10;3.10;;;1.70;;
76725;SDS011;65651;53.154;17.916;2023-08-17T05:41:37;2.60;;;1.80;;
76725;SDS011;65651;53.154;17.916;2023-08-17T05:44:05;4.80;;;2.40;;
76725;SDS011;65651;53.154;17.916;2023-08-17T05:46:33;4.20;;;2.20;;
76725;SDS011;65651;53.154;17.916;2023-08-17T05:49:01;3.90;;;1.90;;
76725;SDS011;65651;53.154;17.916;2023-08-17T05:51:29;7.10;;;2.10;;
76725;SDS011;65651;53.154;17.916;2023-08-17T05:53:56;5.40;;;2.40;;
76725;SDS011;65651;53.154;17.916;2023-08-17T05:56:24;4.20;;;2.00;;
76725;SDS011;65651;53.154;17.916;2023-08-17T05:58:51;7.10;;;2.00;;
76725;SDS011;65651;53.154;17.916;2023-08-17T06:01:18;5.30;;;2.00;;
76725;SDS011;65651;53.154;17.916;2023-08-17T06:03:46;4.70;;;2.40;;
76725;SDS011;65651;53.154;17.916;2023-08-17T06:06:13;4.10;;;2.90;;
76725;SDS011;65651;53.154;17.916;2023-08-17T06:08:40;4.50;;;2.20;;
76725;SDS011;65651;53.154;17.916;2023-08-17T06:11:08;4.70;;;2.10;;
76725;SDS011;65651;53.154;17.916;2023-08-17T06:13:35;5.20;;;2.30;;
76725;SDS011;65651;53.154;17.916;2023-08-17T06:16:02;5.50;;;2.00;;
76725;SDS011;65651;53.154;17.916;2023-08-17T06:18:29;4.20;;;1.90;;
76725;SDS011;65651;53.154;17.916;2023-08-17T06:20:57;3.50;;;1.90;;
76725;SDS011;65651;53.154;17.916;2023-08-17T06:23:24;4.00;;;1.90;;
76725;SDS011;65651;53.154;17.916;2023-08-17T06:25:52;4.60;;;2.20;;
76725;SDS011;65651;53.154;17.916;2023-08-17T06:28:23;3.40;;;2.40;;
76725;SDS011;65651;53.154;17.916;2023-08-17T06:30:52;5.80;;;2.20;;
76725;SDS011;65651;53.154;17.916;2023-08-17T06:33:20;5.90;;;2.30;;
76725;SDS011;65651;53.154;17.916;2023-08-17T06:35:48;4.90;;;1.90;;
76725;SDS011;65651;53.154;17.916;2023-08-17T06:38:16;6.90;;;2.20;;
76725;SDS011;65651;53.154;17.916;2023-08-17T06:40:43;6.30;;;2.20;;
76725;SDS011;65651;53.154;17.916;2023-08-17T06:43:10;4.60;;;2.10;;
76725;SDS011;65651;53.154;17.916;2023-08-17T06:45:37;4.80;;;1.90;;
76725;SDS011;65651;53.154;17.916;2023-08-17T06:48:05;4.30;;;2.10;;
76725;SDS011;65651;53.154;17.916;2023-08-17T06:50:32;6.90;;;2.20;;
76725;SDS011;65651;53.154;17.916;2023-08-17T06:53:00;3.90;;;1.70;;
76725;SDS011;65651;53.154;17.916;2023-08-17T06:55:28;5.60;;;2.00;;
76725;SDS011;65651;53.154;17.916;2023-08-17T06:57:56;4.60;;;2.10;;
76725;SDS011;65651;53.154;17.916;2023-08-17T07:00:23;4.50;;;2.30;;
76725;SDS011;65651;53.154;17.916;2023-08-17T07:02:51;3.60;;;2.40;;
76725;SDS011;65651;53.154;17.916;2023-08-17T07:05:18;5.40;;;1.80;;
76725;SDS011;65651;53.154;17.916;2023-08-17T07:07:45;5.20;;;2.20;;
76725;SDS011;65651;53.154;17.916;2023-08-17T07:10:12;4.20;;;2.00;;
76725;SDS011;65651;53.154;17.916;2023-08-17T07:12:39;3.80;;;1.90;;
76725;SDS011;65651;53.154;17.916;2023-08-17T07:15:07;4.30;;;1.70;;
76725;SDS011;65651;53.154;17.916;2023-08-17T07:17:34;3.90;;;1.70;;
76725;SDS011;65651;53.154;17.916;2023-08-17T07:20:03;5.70;;;2.10;;
76725;SDS011;65651;53.154;17.916;2023-08-17T07:22:31;4.60;;;1.70;;
76725;SDS011;65651;53.154;17.916;2023-08-17T07:24:58;4.90;;;1.60;;
76725;SDS011;65651;53.154;17.916;2023-08-17T07:27:25;3.60;;;1.80;;
76725;SDS011;65651;53.154;17.916;2023-08-17T07:29:52;2.70;;;1.50;;
76725;SDS011;65651;53.154;17.916;2023-08-17T07:32:22;5.90;;;2.00;;
76725;SDS011;65651;53.154;17.916;2023-08-17T07:34:51;4.80;;;2.00;;
76725;SDS011;65651;53.154;17.916;2023-08-17T07:37:19;6.30;;;2.40;;
76725;SDS011;65651;53.154;17.916;2023-08-17T07:39:46;5.50;;;2.10;;
76725;SDS011;65651;53.154;17.916;2023-08-17T07:42:13;7.90;;;2.20;;
76725;SDS011;65651;53.154;17.916;2023-08-17T07:44:40;3.50;;;1.80;;
76725;SDS011;65651;53.154;17.916;2023-08-17T07:47:08;4.60;;;1.80;;
76725;SDS011;65651;53.154;17.916;2023-08-17T07:49:35;5.40;;;2.30;;
76725;SDS011;65651;53.154;17.916;2023-08-17T07:52:02;5.20;;;2.10;;
76725;SDS011;65651;53.154;17.916;2023-08-17T07:54:30;5.30;;;2.10;;
76725;SDS011;65651;53.154;17.916;2023-08-17T07:56:57;5.80;;;1.90;;
76725;SDS011;65651;53.154;17.916;2023-08-17T07:59:24;3.00;;;1.70;;
76725;SDS011;65651;53.154;17.916;2023-08-17T08:01:50;4.70;;;1.70;;
76725;SDS011;65651;53.154;17.916;2023-08-17T08:04:18;4.80;;;2.00;;
76725;SDS011;65651;53.154;17.916;2023-08-17T08:06:45;4.70;;;1.90;;
76725;SDS011;65651;53.154;17.916;2023-08-17T08:09:15;5.60;;;2.10;;
76725;SDS011;65651;53.154;17.916;2023-08-17T08:11:41;5.20;;;2.10;;
76725;SDS011;65651;53.154;17.916;2023-08-17T08:14:09;4.30;;;1.90;;
76725;SDS011;65651;53.154;17.916;2023-08-17T08:16:36;4.10;;;2.00;;
76725;SDS011;65651;53.154;17.916;2023-08-17T08:19:03;3.40;;;1.70;;
76725;SDS011;65651;53.154;17.916;2023-08-17T08:21:30;3.60;;;1.70;;
76725;SDS011;65651;53.154;17.916;2023-08-17T08:23:57;3.90;;;1.90;;
76725;SDS011;65651;53.154;17.916;2023-08-17T08:26:24;3.50;;;1.90;;
76725;SDS011;65651;53.154;17.916;2023-08-17T08:28:51;3.20;;;1.70;;
76725;SDS011;65651;53.154;17.916;2023-08-17T08:31:18;3.20;;;1.70;;
76725;SDS011;65651;53.154;17.916;2023-08-17T08:33:46;4.10;;;2.00;;
76725;SDS011;65651;53.154;17.916;2023-08-17T08:36:13;4.10;;;1.70;;
76725;SDS011;65651;53.154;17.916;2023-08-17T08:38:40;4.00;;;1.80;;
76725;SDS011;65651;53.154;17.916;2023-08-17T08:41:07;3.10;;;1.80;;
76725;SDS011;65651;53.154;17.916;2023-08-17T08:43:35;3.50;;;1.80;;
76725;SDS011;65651;53.154;17.916;2023-08-17T08:46:03;8.10;;;1.80;;
76725;SDS011;65651;53.154;17.916;2023-08-17T08:48:31;3.90;;;1.70;;
76725;SDS011;65651;53.154;17.916;2023-08-17T08:50:59;4.40;;;1.70;;
76725;SDS011;65651;53.154;17.916;2023-08-17T08:53:31;6.80;;;2.70;;
76725;SDS011;65651;53.154;17.916;2023-08-17T08:56:07;4.20;;;1.90;;
76725;SDS011;65651;53.154;17.916;2023-08-17T08:58:39;6.50;;;2.30;;
76725;SDS011;65651;53.154;17.916;2023-08-17T09:01:09;7.10;;;2.30;;
76725;SDS011;65651;53.154;17.916;2023-08-17T09:03:37;4.20;;;1.90;;
76725;SDS011;65651;53.154;17.916;2023-08-17T09:06:05;5.90;;;2.20;;
76725;SDS011;65651;53.154;17.916;2023-08-17T09:08:33;5.30;;;2.10;;
76725;SDS011;65651;53.154;17.916;2023-08-17T09:11:00;6.40;;;1.80;;
76725;SDS011;65651;53.154;17.916;2023-08-17T09:13:27;5.20;;;2.00;;
76725;SDS011;65651;53.154;17.916;2023-08-17T09:15:58;4.20;;;2.10;;
76725;SDS011;65651;53.154;17.916;2023-08-17T09:18:29;5.40;;;1.90;;
76725;SDS011;65651;53.154;17.916;2023-08-17T09:20:58;4.40;;;2.20;;
76725;SDS011;65651;53.154;17.916;2023-08-17T09:23:25;4.00;;;2.40;;
76725;SDS011;65651;53.154;17.916;2023-08-17T09:25:52;4.60;;;2.10;;
76725;SDS011;65651;53.154;17.916;2023-08-17T09:28:24;3.30;;;1.90;;
76725;SDS011;65651;53.154;17.916;2023-08-17T09:33:23;4.20;;;2.00;;
76725;SDS011;65651;53.154;17.916;2023-08-17T09:35:52;4.90;;;1.50;;
76725;SDS011;65651;53.154;17.916;2023-08-17T09:38:21;5.30;;;1.60;;
76725;SDS011;65651;53.154;17.916;2023-08-17T09:40:49;3.20;;;1.50;;
76725;SDS011;65651;53.154;17.916;2023-08-17T09:43:17;6.20;;;1.80;;
76725;SDS011;65651;53.154;17.916;2023-08-17T09:45:47;5.30;;;2.10;;
76725;SDS011;65651;53.154;17.916;2023-08-17T09:48:17;3.10;;;1.70;;
76725;SDS011;65651;53.154;17.916;2023-08-17T09:50:46;5.30;;;1.50;;
76725;SDS011;65651;53.154;17.916;2023-08-17T09:53:15;3.40;;;1.40;;
76725;SDS011;65651;53.154;17.916;2023-08-17T09:55:44;2.80;;;1.40;;
76725;SDS011;65651;53.154;17.916;2023-08-17T09:58:13;6.20;;;1.90;;
76725;SDS011;65651;53.154;17.916;2023-08-17T10:00:50;4.40;;;2.00;;
76725;SDS011;65651;53.154;17.916;2023-08-17T10:03:18;4.20;;;1.70;;
76725;SDS011;65651;53.154;17.916;2023-08-17T10:05:58;4.40;;;1.80;;
76725;SDS011;65651;53.154;17.916;2023-08-17T10:08:28;5.90;;;1.90;;
76725;SDS011;65651;53.154;17.916;2023-08-17T10:10:58;2.90;;;1.80;;
76725;SDS011;65651;53.154;17.916;2023-08-17T10:13:37;4.60;;;1.60;;
76725;SDS011;65651;53.154;17.916;2023-08-17T10:16:23;3.10;;;1.10;;
76725;SDS011;65651;53.154;17.916;2023-08-17T10:18:54;3.20;;;1.20;;
76725;SDS011;65651;53.154;17.916;2023-08-17T10:21:27;2.90;;;1.20;;
76725;SDS011;65651;53.154;17.916;2023-08-17T10:23:56;4.60;;;1.60;;
76725;SDS011;65651;53.154;17.916;2023-08-17T10:26:25;3.30;;;1.30;;
76725;SDS011;65651;53.154;17.916;2023-08-17T10:28:55;3.40;;;1.10;;
76725;SDS011;65651;53.154;17.916;2023-08-17T10:31:25;4.10;;;1.40;;
76725;SDS011;65651;53.154;17.916;2023-08-17T10:33:53;2.90;;;1.20;;
76725;SDS011;65651;53.154;17.916;2023-08-17T10:36:23;3.50;;;1.40;;
76725;SDS011;65651;53.154;17.916;2023-08-17T10:41:46;3.80;;;1.50;;
76725;SDS011;65651;53.154;17.916;2023-08-17T10:44:16;4.20;;;1.40;;
76725;SDS011;65651;53.154;17.916;2023-08-17T10:46:44;3.20;;;1.30;;
76725;SDS011;65651;53.154;17.916;2023-08-17T10:49:25;4.90;;;1.00;;
76725;SDS011;65651;53.154;17.916;2023-08-17T10:52:03;3.70;;;1.00;;
76725;SDS011;65651;53.154;17.916;2023-08-17T10:54:38;3.30;;;1.60;;
76725;SDS011;65651;53.154;17.916;2023-08-17T11:00:15;5.30;;;2.50;;
76725;SDS011;65651;53.154;17.916;2023-08-17T11:02:44;4.10;;;1.40;;
76725;SDS011;65651;53.154;17.916;2023-08-17T11:05:12;3.90;;;1.70;;
76725;SDS011;65651;53.154;17.916;2023-08-17T11:07:59;3.80;;;2.00;;
76725;SDS011;65651;53.154;17.916;2023-08-17T11:10:28;3.80;;;1.90;;
76725;SDS011;65651;53.154;17.916;2023-08-17T11:12:56;4.60;;;1.90;;
76725;SDS011;65651;53.154;17.916;2023-08-17T11:15:43;4.40;;;2.00;;
76725;SDS011;65651;53.154;17.916;2023-08-17T11:18:11;5.50;;;1.60;;
76725;SDS011;65651;53.154;17.916;2023-08-17T11:20:40;3.70;;;1.90;;
76725;SDS011;65651;53.154;17.916;2023-08-17T11:23:08;3.70;;;1.60;;
76725;SDS011;65651;53.154;17.916;2023-08-17T11:25:37;5.50;;;1.80;;
76725;SDS011;65651;53.154;17.916;2023-08-17T11:28:06;8.00;;;2.00;;
76725;SDS011;65651;53.154;17.916;2023-08-17T11:30:36;3.90;;;1.80;;
76725;SDS011;65651;53.154;17.916;2023-08-17T11:33:06;5.70;;;2.00;;
76725;SDS011;65651;53.154;17.916;2023-08-17T11:35:35;6.50;;;1.60;;
76725;SDS011;65651;53.154;17.916;2023-08-17T11:38:03;4.40;;;1.60;;
76725;SDS011;65651;53.154;17.916;2023-08-17T11:40:32;6.40;;;1.80;;
76725;SDS011;65651;53.154;17.916;2023-08-17T11:43:00;3.40;;;1.00;;
76725;SDS011;65651;53.154;17.916;2023-08-17T11:45:27;4.00;;;1.60;;
76725;SDS011;65651;53.154;17.916;2023-08-17T11:47:56;2.80;;;1.60;;
76725;SDS011;65651;53.154;17.916;2023-08-17T11:50:24;3.10;;;1.50;;
76725;SDS011;65651;53.154;17.916;2023-08-17T11:52:53;3.80;;;2.00;;
76725;SDS011;65651;53.154;17.916;2023-08-17T11:55:20;4.20;;;1.80;;
76725;SDS011;65651;53.154;17.916;2023-08-17T11:57:48;4.50;;;1.70;;
76725;SDS011;65651;53.154;17.916;2023-08-17T12:00:18;5.50;;;1.30;;
76725;SDS011;65651;53.154;17.916;2023-08-17T12:02:47;2.60;;;1.50;;
76725;SDS011;65651;53.154;17.916;2023-08-17T12:05:27;8.10;;;1.70;;
76725;SDS011;65651;53.154;17.916;2023-08-17T12:07:56;5.60;;;1.80;;
76725;SDS011;65651;53.154;17.916;2023-08-17T12:10:23;3.60;;;1.60;;
76725;SDS011;65651;53.154;17.916;2023-08-17T12:12:50;3.80;;;1.70;;
76725;SDS011;65651;53.154;17.916;2023-08-17T12:15:18;4.00;;;1.80;;
76725;SDS011;65651;53.154;17.916;2023-08-17T12:17:46;3.90;;;2.40;;
76725;SDS011;65651;53.154;17.916;2023-08-17T12:20:15;6.90;;;2.70;;
76725;SDS011;65651;53.154;17.916;2023-08-17T12:22:44;5.50;;;2.50;;
76725;SDS011;65651;53.154;17.916;2023-08-17T12:25:13;4.30;;;2.80;;
76725;SDS011;65651;53.154;17.916;2023-08-17T12:27:41;5.80;;;2.80;;
76725;SDS011;65651;53.154;17.916;2023-08-17T12:30:12;4.70;;;2.50;;
76725;SDS011;65651;53.154;17.916;2023-08-17T12:32:40;5.80;;;2.80;;
76725;SDS011;65651;53.154;17.916;2023-08-17T12:35:24;7.50;;;3.40;;
76725;SDS011;65651;53.154;17.916;2023-08-17T12:37:57;8.10;;;2.70;;
76725;SDS011;65651;53.154;17.916;2023-08-17T12:40:35;6.00;;;2.60;;
76725;SDS011;65651;53.154;17.916;2023-08-17T12:43:02;4.00;;;2.40;;
76725;SDS011;65651;53.154;17.916;2023-08-17T12:45:30;4.00;;;2.30;;
76725;SDS011;65651;53.154;17.916;2023-08-17T12:48:00;4.20;;;2.70;;
76725;SDS011;65651;53.154;17.916;2023-08-17T12:50:28;5.60;;;2.30;;
76725;SDS011;65651;53.154;17.916;2023-08-17T12:52:55;4.30;;;2.20;;
76725;SDS011;65651;53.154;17.916;2023-08-17T12:55:22;4.60;;;2.30;;
76725;SDS011;65651;53.154;17.916;2023-08-17T12:57:50;6.40;;;2.50;;
76725;SDS011;65651;53.154;17.916;2023-08-17T13:00:17;3.80;;;2.50;;
76725;SDS011;65651;53.154;17.916;2023-08-17T13:02:45;5.50;;;2.50;;
76725;SDS011;65651;53.154;17.916;2023-08-17T13:05:14;3.50;;;2.20;;
76725;SDS011;65651;53.154;17.916;2023-08-17T13:07:42;4.90;;;2.50;;
76725;SDS011;65651;53.154;17.916;2023-08-17T13:10:09;10.50;;;3.00;;
76725;SDS011;65651;53.154;17.916;2023-08-17T13:12:36;7.10;;;2.80;;
76725;SDS011;65651;53.154;17.916;2023-08-17T13:15:04;4.00;;;2.40;;
76725;SDS011;65651;53.154;17.916;2023-08-17T13:17:32;3.60;;;2.90;;
76725;SDS011;65651;53.154;17.916;2023-08-17T13:20:00;4.10;;;2.50;;
76725;SDS011;65651;53.154;17.916;2023-08-17T13:22:27;4.80;;;3.20;;
76725;SDS011;65651;53.154;17.916;2023-08-17T13:24:55;4.30;;;2.70;;
76725;SDS011;65651;53.154;17.916;2023-08-17T13:27:23;4.50;;;3.00;;
76725;SDS011;65651;53.154;17.916;2023-08-17T13:29:50;5.90;;;3.50;;
76725;SDS011;65651;53.154;17.916;2023-08-17T13:32:18;5.10;;;3.60;;
76725;SDS011;65651;53.154;17.916;2023-08-17T13:34:46;6.10;;;2.80;;
76725;SDS011;65651;53.154;17.916;2023-08-17T13:37:14;7.90;;;2.90;;
76725;SDS011;65651;53.154;17.916;2023-08-17T13:39:42;4.30;;;3.20;;
76725;SDS011;65651;53.154;17.916;2023-08-17T13:42:10;7.10;;;3.10;;
76725;SDS011;65651;53.154;17.916;2023-08-17T13:44:38;4.10;;;2.70;;
76725;SDS011;65651;53.154;17.916;2023-08-17T13:47:05;8.00;;;3.00;;
76725;SDS011;65651;53.154;17.916;2023-08-17T13:49:32;5.80;;;3.00;;
76725;SDS011;65651;53.154;17.916;2023-08-17T13:52:00;5.80;;;3.10;;
76725;SDS011;65651;53.154;17.916;2023-08-17T13:54:27;3.80;;;3.00;;
76725;SDS011;65651;53.154;17.916;2023-08-17T13:56:55;5.70;;;2.90;;
76725;SDS011;65651;53.154;17.916;2023-08-17T13:59:22;4.70;;;3.10;;
76725;SDS011;65651;53.154;17.916;2023-08-17T14:01:49;6.90;;;3.00;;
76725;SDS011;65651;53.154;17.916;2023-08-17T14:04:16;8.60;;;3.10;;
76725;SDS011;65651;53.154;17.916;2023-08-17T14:06:44;5.00;;;3.10;;
76725;SDS011;65651;53.154;17.916;2023-08-17T14:09:12;3.80;;;2.20;;
76725;SDS011;65651;53.154;17.916;2023-08-17T14:11:39;6.00;;;2.80;;
76725;SDS011;65651;53.154;17.916;2023-08-17T14:14:06;7.00;;;3.20;;
76725;SDS011;65651;53.154;17.916;2023-08-17T14:16:34;5.90;;;3.10;;
76725;SDS011;65651;53.154;17.916;2023-08-17T14:19:01;3.40;;;2.40;;
76725;SDS011;65651;53.154;17.916;2023-08-17T14:21:28;4.70;;;2.90;;
76725;SDS011;65651;53.154;17.916;2023-08-17T14:23:56;4.80;;;2.80;;
76725;SDS011;65651;53.154;17.916;2023-08-17T14:26:23;5.60;;;2.70;;
76725;SDS011;65651;53.154;17.916;2023-08-17T14:28:51;8.60;;;2.50;;
76725;SDS011;65651;53.154;17.916;2023-08-17T14:31:18;8.60;;;2.60;;
76725;SDS011;65651;53.154;17.916;2023-08-17T14:33:46;4.00;;;2.50;;
76725;SDS011;65651;53.154;17.916;2023-08-17T14:36:14;6.10;;;2.80;;
76725;SDS011;65651;53.154;17.916;2023-08-17T14:38:42;6.20;;;2.80;;
76725;SDS011;65651;53.154;17.916;2023-08-17T14:41:10;4.50;;;2.80;;
76725;SDS011;65651;53.154;17.916;2023-08-17T14:43:37;5.90;;;2.60;;
76725;SDS011;65651;53.154;17.916;2023-08-17T14:46:04;7.60;;;2.30;;
76725;SDS011;65651;53.154;17.916;2023-08-17T14:48:32;6.40;;;3.00;;
76725;SDS011;65651;53.154;17.916;2023-08-17T14:50:59;5.10;;;2.90;;
76725;SDS011;65651;53.154;17.916;2023-08-17T14:53:26;5.80;;;3.20;;
76725;SDS011;65651;53.154;17.916;2023-08-17T14:55:57;5.40;;;2.80;;